Time;durP1;ratioP1;P1;durP2;ratioP2;P2;SDS_P1;SDS_P2;PMS_P1;PMS_P2;Temp;Humidity;BMP_temperature;BMP_pressure;BME280_temperature;BME280_humidity;BME280_pressure;Samples;Min_cycle;Max_cycle;Signal;HPM_P1;HPM_P2
2022/09/27 08:01:47;;;;;;;5.32;4.00;;;;;;;9.89;100.00;99698.00;5280467;28;20391;-69
2022/09/27 08:04:18;;;;;;;6.63;3.60;;;;;;;10.18;100.00;99696.78;5267740;28;20397;-69
2022/09/27 08:06:49;;;;;;;5.18;3.83;;;;;;;9.98;99.80;99709.97;5259422;28;20075;-69
2022/09/27 08:09:21;;;;;;;6.25;3.88;;;;;;;10.03;100.00;99700.72;5266981;28;20086;-69
2022/09/27 08:11:57;;;;;;;4.18;3.65;;;;;;;10.06;100.00;99707.59;5274684;28;20033;-71
2022/09/27 08:14:28;;;;;;;5.25;4.57;;;;;;;10.02;99.47;99711.00;5258681;28;20025;-72
2022/09/27 08:16:59;;;;;;;4.10;3.30;;;;;;;9.93;99.43;99707.31;5277086;28;20031;-72
2022/09/27 08:19:31;;;;;;;4.10;3.80;;;;;;;9.95;99.51;99705.06;5278797;28;20573;-71
2022/09/27 08:22:03;;;;;;;5.47;4.05;;;;;;;9.93;100.00;99712.88;5273295;28;20025;-73
2022/09/27 08:24:34;;;;;;;4.90;4.40;;;;;;;9.95;100.00;99699.53;5258919;28;20036;-72
2022/09/27 08:27:06;;;;;;;5.05;4.53;;;;;;;9.91;100.00;99709.59;5258453;28;20038;-72
2022/09/27 08:29:40;;;;;;;8.43;5.88;;;;;;;9.88;100.00;99713.00;5259227;28;20094;-71
2022/09/27 08:32:12;;;;;;;5.85;5.13;;;;;;;9.93;100.00;99707.31;5259473;28;20076;-71
2022/09/27 08:34:44;;;;;;;6.68;5.28;;;;;;;10.04;100.00;99707.91;5258053;28;20021;-72
2022/09/27 08:37:15;;;;;;;5.80;5.18;;;;;;;10.01;100.00;99703.00;5258553;28;20173;-72
2022/09/27 08:39:46;;;;;;;8.27;6.47;;;;;;;10.07;100.00;99698.16;5268660;28;20025;-72
2022/09/27 08:42:40;;;;;;;7.53;6.82;;;;;;;10.10;100.00;99700.28;5270795;28;20178;-71
2022/09/27 08:45:17;;;;;;;7.50;6.70;;;;;;;10.12;100.00;99703.56;5271849;28;20488;-71
2022/09/27 08:47:57;;;;;;;7.03;6.40;;;;;;;10.19;100.00;99706.72;5257436;28;20029;-72
2022/09/27 08:50:34;;;;;;;7.40;6.75;;;;;;;10.24;99.38;99703.81;5268596;28;20452;-72
2022/09/27 08:53:32;;;;;;;8.40;7.60;;;;;;;10.27;99.02;99705.13;5276429;28;20028;-72
2022/09/27 08:56:08;;;;;;;7.25;6.55;;;;;;;10.23;100.00;99713.28;5273786;28;20480;-77
2022/09/27 08:58:51;;;;;;;9.00;8.13;;;;;;;10.26;99.70;99703.50;5277604;28;20094;-75
2022/09/27 09:01:24;;;;;;;6.82;5.75;;;;;;;10.51;100.00;99705.66;5264921;28;20385;-77
2022/09/27 09:03:59;;;;;;;7.95;6.95;;;;;;;10.66;100.00;99708.03;5278410;28;20025;-77
2022/09/27 09:06:41;;;;;;;8.45;7.47;;;;;;;10.73;100.00;99706.75;5268264;28;20030;-76
2022/09/27 09:09:35;;;;;;;10.57;7.15;;;;;;;10.90;100.00;99703.25;5257402;28;20025;-76
2022/09/27 09:15:24;;;;;;;8.98;7.07;;;;;;;10.76;98.10;99718.03;5265014;28;20029;-76
2022/09/27 09:18:19;;;;;;;7.50;5.85;;;;;;;10.97;98.75;99712.75;5259453;28;20024;-77
2022/09/27 09:21:01;;;;;;;7.15;6.45;;;;;;;10.93;97.93;99713.72;5243771;28;20033;-77
2022/09/27 09:23:58;;;;;;;6.05;5.45;;;;;;;11.26;99.39;99725.25;5243025;28;20079;-76
2022/09/27 09:26:44;;;;;;;7.15;6.55;;;;;;;11.18;98.09;99726.06;5243864;28;20389;-80
2022/09/27 09:29:37;;;;;;;17.48;15.63;;;;;;;10.92;99.66;99721.22;5243991;28;20025;-80
2022/09/27 09:32:39;;;;;;;9.77;8.88;;;;;;;10.77;98.60;99722.44;5243717;28;20038;-79
2022/09/27 09:35:16;;;;;;;8.40;7.55;;;;;;;10.98;99.94;99721.88;5243989;28;20104;-79
2022/09/27 09:37:54;;;;;;;10.23;9.32;;;;;;;10.75;99.19;99719.16;5263769;28;20028;-79
2022/09/27 09:40:38;;;;;;;11.10;9.98;;;;;;;10.66;99.39;99712.78;5264467;28;20033;-78
2022/09/27 09:43:25;;;;;;;11.45;10.45;;;;;;;10.68;99.80;99726.31;5245812;28;20025;-76
2022/09/27 09:46:27;;;;;;;13.43;11.98;;;;;;;10.65;99.84;99733.31;5243927;28;20028;-76
2022/09/27 09:49:13;;;;;;;10.63;9.60;;;;;;;10.83;100.00;99728.66;5259558;28;20041;-75
2022/09/27 09:51:51;;;;;;;11.18;10.00;;;;;;;10.61;100.00;99735.09;5261540;28;20037;-75
2022/09/27 09:54:32;;;;;;;10.45;9.48;;;;;;;10.50;99.98;99730.91;5263131;28;20028;-77
2022/09/27 09:57:14;;;;;;;10.43;9.25;;;;;;;10.56;100.00;99732.44;5243661;28;20033;-78
2022/09/27 09:59:57;;;;;;;9.25;8.20;;;;;;;10.66;100.00;99737.72;5242397;28;20077;-79
2022/09/27 10:02:33;;;;;;;8.68;7.28;;;;;;;10.57;99.13;99734.06;5243422;28;20041;-76
2022/09/27 10:05:06;;;;;;;6.75;6.13;;;;;;;10.51;97.85;99732.56;5244431;28;20386;-75
2022/09/27 10:07:38;;;;;;;7.22;5.72;;;;;;;10.58;98.99;99733.75;5247294;28;20025;-79
2022/09/27 10:10:15;;;;;;;6.57;5.40;;;;;;;10.75;99.26;99726.66;5244266;28;20376;-78
2022/09/27 10:12:47;;;;;;;6.45;4.45;;;;;;;10.94;98.45;99737.53;5254545;28;20025;-81
2022/09/27 10:15:22;;;;;;;4.78;4.38;;;;;;;11.03;98.91;99732.84;5263822;28;20113;-81
2022/09/27 10:17:56;;;;;;;4.22;3.88;;;;;;;10.86;97.77;99734.41;5263788;28;20029;-78
2022/09/27 10:20:37;;;;;;;4.15;2.85;;;;;;;10.63;96.06;99741.09;5262824;28;20023;-78
2022/09/27 10:23:20;;;;;;;4.10;2.28;;;;;;;10.45;96.41;99729.91;5262970;28;20021;-79
2022/09/27 10:25:56;;;;;;;2.63;1.73;;;;;;;10.33;94.98;99732.44;5249983;28;20047;-80
2022/09/27 10:28:41;;;;;;;1.80;1.33;;;;;;;10.27;94.59;99733.66;5261360;28;20098;-78
2022/09/27 10:31:16;;;;;;;1.83;1.38;;;;;;;10.15;95.08;99736.16;5250031;28;20033;-79
2022/09/27 10:33:54;;;;;;;2.47;1.27;;;;;;;10.06;93.58;99738.06;5259595;28;20037;-81
2022/09/27 10:36:28;;;;;;;1.38;0.95;;;;;;;9.90;93.12;99741.19;5261144;28;20029;-81
2022/09/27 10:39:03;;;;;;;3.22;1.63;;;;;;;9.93;93.93;99737.78;5250080;28;20416;-81
2022/09/27 10:41:40;;;;;;;9.90;7.25;;;;;;;9.91;94.15;99742.00;5240676;28;20376;-79
2022/09/27 10:44:14;;;;;;;1.70;1.00;;;;;;;9.87;93.87;99740.97;5242324;28;20072;-82
2022/09/27 10:46:54;;;;;;;3.63;1.08;;;;;;;9.87;93.32;99741.81;5248978;28;20034;-81
2022/09/27 10:49:32;;;;;;;1.63;0.98;;;;;;;9.98;95.36;99746.00;5255543;28;20079;-81
2022/09/27 10:52:12;;;;;;;1.30;1.00;;;;;;;9.97;95.24;99744.38;5262942;28;20020;-81
2022/09/27 10:55:13;;;;;;;0.98;0.88;;;;;;;10.07;96.51;99746.03;5248813;28;20061;-82
2022/09/27 10:57:52;;;;;;;1.52;1.13;;;;;;;10.11;96.33;99743.50;5263880;28;20053;-80
2022/09/27 11:00:31;;;;;;;3.85;1.40;;;;;;;10.24;96.49;99745.38;5261294;28;20048;-81
2022/09/27 11:03:07;;;;;;;2.67;0.90;;;;;;;10.14;95.99;99742.84;5241757;28;20419;-81
2022/09/27 11:05:38;;;;;;;1.90;1.20;;;;;;;10.18;95.48;99743.88;5245636;28;20026;-82
2022/09/27 11:08:24;;;;;;;2.90;1.40;;;;;;;10.25;95.10;99738.69;5258093;28;20512;-81
2022/09/27 11:11:18;;;;;;;2.13;1.10;;;;;;;10.07;93.04;99740.50;5248550;28;20030;-82
2022/09/27 11:14:01;;;;;;;1.73;0.93;;;;;;;10.16;93.66;99733.09;5261905;28;20028;-81
2022/09/27 11:16:47;;;;;;;3.20;1.10;;;;;;;10.20;94.97;99733.28;5260209;28;20029;-82
2022/09/27 11:19:56;;;;;;;1.58;0.93;;;;;;;10.41;94.10;99730.88;5271234;28;20063;-81
2022/09/27 11:23:04;;;;;;;1.33;0.80;;;;;;;10.53;94.71;99721.97;5247242;28;20144;-81
2022/09/27 11:25:49;;;;;;;0.98;0.77;;;;;;;10.55;92.81;99714.97;5278015;28;20162;-80
2022/09/27 11:28:21;;;;;;;1.65;0.95;;;;;;;10.56;91.84;99708.31;5270436;28;20037;-82
2022/09/27 11:31:21;;;;;;;2.13;1.25;;;;;;;10.72;93.41;99717.03;5241797;28;20037;-80
2022/09/27 11:34:37;;;;;;;3.38;1.52;;;;;;;10.80;92.37;99707.13;5242709;28;20034;-78
2022/09/27 11:37:11;;;;;;;3.42;3.03;;;;;;;10.84;93.70;99708.94;5248396;28;20117;-79
2022/09/27 11:39:42;;;;;;;1.48;0.80;;;;;;;10.76;91.77;99709.72;5239306;28;20446;-79
2022/09/27 11:42:27;;;;;;;3.35;0.90;;;;;;;10.85;92.41;99712.53;5240623;28;20046;-78
2022/09/27 11:45:36;;;;;;;1.52;0.90;;;;;;;10.94;93.20;99704.25;5240887;28;20029;-79
2022/09/27 11:48:24;;;;;;;1.63;1.20;;;;;;;11.07;91.00;99711.66;5241742;28;20025;-79
2022/09/27 11:50:55;;;;;;;2.45;1.20;;;;;;;11.12;91.62;99711.50;5240661;28;20112;-80
2022/09/27 11:53:38;;;;;;;4.03;1.00;;;;;;;11.26;91.30;99714.97;5242090;28;20100;-79
2022/09/27 11:56:24;;;;;;;2.97;1.23;;;;;;;11.26;90.82;99716.94;5241038;28;20025;-80
2022/09/27 11:59:17;;;;;;;1.25;1.00;;;;;;;11.32;90.00;99710.94;5241802;28;20038;-81
2022/09/27 12:02:26;;;;;;;4.47;1.08;;;;;;;11.39;90.93;99702.13;5241251;28;20516;-80
2022/09/27 12:05:07;;;;;;;1.88;1.10;;;;;;;11.31;88.53;99700.94;5260152;28;20132;-81
2022/09/27 12:07:51;;;;;;;1.45;0.98;;;;;;;11.36;87.25;99696.41;5262378;28;20036;-81
2022/09/27 12:10:22;;;;;;;3.40;1.55;;;;;;;11.35;87.02;99697.53;5244362;28;20112;-84
2022/09/27 12:12:57;;;;;;;1.42;0.98;;;;;;;11.30;86.09;99699.31;5245422;28;20102;-82
2022/09/27 12:15:34;;;;;;;1.88;1.30;;;;;;;11.25;85.67;99707.00;5262477;28;20029;-81
2022/09/27 12:18:19;;;;;;;3.97;1.08;;;;;;;11.24;86.71;99708.91;5262612;28;20546;-81
2022/09/27 12:20:52;;;;;;;2.53;1.08;;;;;;;11.28;88.34;99701.59;5251361;28;20033;-82
2022/09/27 12:23:46;;;;;;;2.33;1.10;;;;;;;11.40;87.80;99701.00;5241574;28;20029;-82
2022/09/27 12:26:27;;;;;;;7.47;6.57;;;;;;;11.39;87.40;99699.34;5252855;28;20027;-81
2022/09/27 12:29:12;;;;;;;13.05;10.73;;;;;;;11.33;87.37;99697.88;5262165;28;20544;-81
2022/09/27 12:32:00;;;;;;;5.10;3.35;;;;;;;11.53;86.97;99690.88;5261876;28;20060;-81
2022/09/27 12:34:47;;;;;;;1.30;1.20;;;;;;;11.49;86.79;99695.44;5260329;28;20021;-81
2022/09/27 12:37:30;;;;;;;2.10;1.27;;;;;;;11.55;87.80;99683.03;5250980;28;20133;-77
2022/09/27 12:40:11;;;;;;;1.80;1.25;;;;;;;11.52;87.72;99678.13;5239915;28;20030;-77
2022/09/27 12:43:05;;;;;;;9.35;5.88;;;;;;;11.52;89.11;99678.94;5241331;28;20121;-76
2022/09/27 12:45:49;;;;;;;1.85;1.10;;;;;;;11.44;87.11;99687.25;5238086;28;20032;-78
2022/09/27 12:48:46;;;;;;;3.20;1.20;;;;;;;11.45;88.67;99688.88;5253958;28;20059;-80
2022/09/27 12:51:21;;;;;;;2.80;1.33;;;;;;;11.65;89.27;99687.47;5264945;28;20025;-80
2022/09/27 12:54:08;;;;;;;2.42;1.23;;;;;;;11.54;87.73;99675.84;5256792;28;21439;-80
2022/09/27 12:56:57;;;;;;;4.05;2.88;;;;;;;11.53;85.53;99674.22;5251903;28;20457;-81
2022/09/27 12:59:41;;;;;;;4.15;2.33;;;;;;;11.42;87.21;99675.66;5245655;28;20025;-83
2022/09/27 13:02:25;;;;;;;8.57;6.78;;;;;;;11.40;87.41;99678.78;5255782;28;20404;-80
2022/09/27 13:05:21;;;;;;;7.68;2.70;;;;;;;11.56;89.06;99679.13;5265019;28;20392;-81
2022/09/27 13:08:19;;;;;;;2.53;1.30;;;;;;;11.59;86.92;99686.81;5264556;28;20049;-81
2022/09/27 13:11:03;;;;;;;4.68;2.80;;;;;;;11.61;87.38;99675.38;5263939;28;20101;-81
2022/09/27 13:13:38;;;;;;;2.45;1.92;;;;;;;11.68;89.90;99682.09;5259370;28;20029;-80
2022/09/27 13:16:10;;;;;;;2.80;1.88;;;;;;;11.65;86.29;99670.78;5260557;28;20108;-80
2022/09/27 13:18:51;;;;;;;2.38;1.20;;;;;;;11.59;85.86;99672.09;5264734;28;20453;-81
2022/09/27 13:21:46;;;;;;;2.92;1.88;;;;;;;11.71;86.04;99670.31;5264948;28;20055;-77
2022/09/27 13:24:37;;;;;;;5.60;1.38;;;;;;;11.70;87.53;99670.63;5264319;28;20443;-78
2022/09/27 13:27:39;;;;;;;3.03;1.80;;;;;;;11.83;88.74;99655.75;5243562;28;20106;-77
2022/09/27 13:30:10;;;;;;;3.50;1.88;;;;;;;11.84;87.66;99651.06;5238514;28;20126;-76
2022/09/27 13:33:12;;;;;;;1.95;1.40;;;;;;;11.97;86.91;99650.09;5247585;28;20044;-76
2022/09/27 13:36:07;;;;;;;5.05;1.55;;;;;;;11.94;86.25;99651.56;5261829;28;20495;-77
2022/09/27 13:38:38;;;;;;;5.80;1.80;;;;;;;12.01;86.06;99647.47;5264730;28;20036;-78
2022/09/27 13:41:18;;;;;;;4.35;2.58;;;;;;;12.11;85.82;99647.94;5264562;28;20033;-78
2022/09/27 13:44:16;;;;;;;3.20;1.50;;;;;;;12.14;86.75;99640.91;5262444;28;20025;-78
2022/09/27 13:46:55;;;;;;;3.97;2.15;;;;;;;11.92;86.70;99647.47;5253131;28;20079;-79
2022/09/27 13:49:37;;;;;;;4.18;2.33;;;;;;;12.08;87.07;99640.25;5263560;28;20044;-79
2022/09/27 13:52:35;;;;;;;5.07;2.10;;;;;;;12.16;87.38;99642.19;5262869;28;20055;-75
2022/09/27 13:55:44;;;;;;;5.20;2.00;;;;;;;12.29;87.56;99639.56;5262817;28;20036;-75
2022/09/27 13:58:37;;;;;;;2.92;1.83;;;;;;;12.33;88.28;99643.34;5263115;28;20033;-73
2022/09/27 14:01:38;;;;;;;17.52;3.42;;;;;;;12.43;87.99;99629.06;5263773;28;20052;-76
2022/09/27 14:04:18;;;;;;;4.07;1.85;;;;;;;12.36;87.03;99625.97;5247834;28;20114;-78
2022/09/27 14:06:56;;;;;;;5.10;2.05;;;;;;;12.30;85.94;99624.53;5243105;28;20037;-78
2022/09/27 14:09:37;;;;;;;3.45;2.28;;;;;;;12.32;86.38;99622.22;5243349;28;20444;-79
2022/09/27 14:12:15;;;;;;;5.78;2.33;;;;;;;12.28;86.25;99619.31;5242419;28;20033;-79
2022/09/27 14:14:49;;;;;;;4.70;2.15;;;;;;;12.19;85.00;99643.50;5243070;28;20028;-78
2022/09/27 14:17:21;;;;;;;6.25;3.40;;;;;;;12.18;87.43;99639.91;5256851;28;20025;-79
2022/09/27 14:19:55;;;;;;;5.35;2.97;;;;;;;12.03;88.73;99637.66;5262609;28;20037;-79
2022/09/27 14:22:27;;;;;;;7.43;5.00;;;;;;;12.01;90.27;99639.13;5264610;28;20025;-82
2022/09/27 14:25:15;;;;;;;10.77;7.25;;;;;;;11.68;79.69;99629.31;5263985;28;20024;-78
2022/09/27 14:27:46;;;;;;;11.50;5.85;;;;;;;11.72;77.79;99621.94;5263529;28;20033;-73
2022/09/27 14:30:23;;;;;;;7.53;4.75;;;;;;;11.57;77.28;99629.97;5263423;28;20098;-72
2022/09/27 14:32:59;;;;;;;7.32;4.53;;;;;;;11.70;82.24;99629.78;5262652;28;20025;-74
2022/09/27 14:38:20;;;;;;;2.22;1.25;;;;;;;11.79;82.32;99631.78;5248973;28;19960;-77
2022/09/27 14:40:52;;;;;;;4.93;1.83;;;;;;;11.81;82.76;99629.47;5257632;28;20032;-77
2022/09/27 14:43:24;;;;;;;7.13;3.47;;;;;;;11.87;83.51;99626.22;5243024;28;20026;-77
2022/09/27 14:46:07;;;;;;;3.42;1.67;;;;;;;11.85;83.38;99630.44;5239872;28;20116;-77
2022/09/27 14:48:39;;;;;;;2.67;1.20;;;;;;;11.70;83.06;99624.22;5246661;28;20057;-76
2022/09/27 14:51:11;;;;;;;3.33;1.60;;;;;;;11.80;82.83;99622.28;5245805;28;20024;-79
2022/09/27 14:53:59;;;;;;;4.13;1.50;;;;;;;11.85;83.05;99625.69;5246532;28;20035;-77
2022/09/27 14:56:39;;;;;;;3.55;1.92;;;;;;;11.70;81.14;99629.78;5260429;28;20028;-77
2022/09/27 14:59:15;;;;;;;4.05;1.98;;;;;;;11.77;80.50;99626.53;5251493;28;20477;-76
2022/09/27 15:01:51;;;;;;;6.72;2.40;;;;;;;11.71;81.10;99634.22;5238488;28;20558;-77
2022/09/27 15:04:23;;;;;;;8.77;6.93;;;;;;;11.78;81.31;99630.13;5239921;28;20065;-77
2022/09/27 15:06:54;;;;;;;6.13;3.05;;;;;;;11.73;80.21;99626.38;5238659;28;20075;-74
2022/09/27 15:09:26;;;;;;;2.85;1.40;;;;;;;11.80;81.80;99627.84;5238297;28;20025;-77
2022/09/27 15:11:59;;;;;;;3.15;1.20;;;;;;;11.85;81.77;99633.22;5260020;28;20028;-77
2022/09/27 15:14:32;;;;;;;3.45;1.45;;;;;;;11.78;82.91;99630.13;5256042;28;20439;-75
2022/09/27 15:17:06;;;;;;;4.70;2.28;;;;;;;11.93;82.94;99632.44;5239624;28;20112;-74
2022/09/27 15:19:38;;;;;;;5.25;2.10;;;;;;;11.86;83.24;99632.94;5247414;28;20056;-74
2022/09/27 15:22:43;;;;;;;4.45;1.60;;;;;;;11.93;83.32;99629.66;5239664;28;20457;-74
2022/09/27 15:25:35;;;;;;;5.45;2.60;;;;;;;11.83;83.83;99630.75;5247297;28;20036;-77
2022/09/27 15:28:18;;;;;;;6.07;2.47;;;;;;;11.83;85.20;99636.31;5247429;28;20047;-76
2022/09/27 15:30:56;;;;;;;2.75;1.98;;;;;;;11.79;85.73;99634.53;5238470;28;20477;-76
2022/09/27 15:33:33;;;;;;;3.03;2.10;;;;;;;11.75;85.74;99614.94;5240295;28;20377;-76
2022/09/27 15:36:07;;;;;;;4.65;1.80;;;;;;;11.73;85.97;99618.03;5249136;28;20033;-76
2022/09/27 15:38:45;;;;;;;4.70;2.22;;;;;;;11.71;86.21;99613.97;5258455;28;20029;-77
2022/09/27 15:41:19;;;;;;;5.00;2.33;;;;;;;11.56;85.59;99620.00;5260474;28;20059;-76
2022/09/27 15:43:51;;;;;;;4.40;2.38;;;;;;;11.64;87.89;99628.31;5257056;28;20025;-76
2022/09/27 15:46:27;;;;;;;6.80;2.78;;;;;;;11.54;88.32;99626.69;5239685;28;20026;-76
2022/09/27 15:49:16;;;;;;;4.20;1.90;;;;;;;11.70;90.48;99618.69;5239172;28;20022;-74
2022/09/27 15:51:50;;;;;;;5.55;2.00;;;;;;;11.49;89.61;99614.94;5238089;28;20029;-74
2022/09/27 15:54:29;;;;;;;4.45;2.90;;;;;;;11.39;90.32;99634.69;5250876;28;20053;-76
2022/09/27 15:57:03;;;;;;;4.72;2.20;;;;;;;11.33;91.28;99631.25;5243546;28;20113;-76
2022/09/27 15:59:35;;;;;;;10.45;9.07;;;;;;;11.21;92.51;99629.09;5248489;28;20419;-76
2022/09/27 16:02:15;;;;;;;4.07;2.30;;;;;;;11.19;93.18;99630.56;5245261;28;20111;-76
2022/09/27 16:04:49;;;;;;;4.00;2.13;;;;;;;11.18;92.33;99629.75;5238772;28;20067;-74
2022/09/27 16:07:21;;;;;;;6.15;2.70;;;;;;;11.15;92.34;99629.59;5245863;28;20112;-76
2022/09/27 16:09:54;;;;;;;4.40;2.83;;;;;;;11.03;91.78;99624.66;5257054;28;20036;-76
2022/09/27 16:12:28;;;;;;;3.92;1.90;;;;;;;11.08;92.56;99618.94;5259594;28;20033;-76
2022/09/27 16:15:00;;;;;;;3.47;2.03;;;;;;;11.04;91.43;99621.56;5260419;28;20037;-75
2022/09/27 16:17:31;;;;;;;8.05;4.65;;;;;;;11.00;91.45;99605.88;5241355;28;20026;-77
2022/09/27 16:20:04;;;;;;;4.72;2.20;;;;;;;10.90;91.39;99597.84;5242577;28;20045;-74
2022/09/27 16:22:35;;;;;;;3.95;2.55;;;;;;;10.97;91.35;99587.91;5255304;28;20124;-73
2022/09/27 16:25:07;;;;;;;4.60;2.50;;;;;;;11.04;91.83;99599.38;5255301;28;20239;-76
2022/09/27 16:27:39;;;;;;;5.65;3.20;;;;;;;11.09;92.65;99592.81;5243580;28;20026;-75
2022/09/27 16:30:12;;;;;;;3.00;1.90;;;;;;;11.05;91.99;99591.84;5258036;28;20025;-75
2022/09/27 16:32:45;;;;;;;4.97;2.28;;;;;;;11.04;92.06;99579.94;5263321;28;20049;-73
2022/09/27 16:35:18;;;;;;;2.08;1.45;;;;;;;11.04;93.06;99579.94;5254618;28;20036;-75
2022/09/27 16:37:49;;;;;;;3.42;2.00;;;;;;;11.08;93.18;99580.09;5255300;28;20031;-75
2022/09/27 16:40:21;;;;;;;4.13;1.75;;;;;;;11.05;92.90;99580.75;5262569;28;20029;-75
2022/09/27 16:42:52;;;;;;;4.05;1.95;;;;;;;11.09;93.46;99585.34;5243585;28;20025;-75
2022/09/27 16:45:32;;;;;;;3.95;1.80;;;;;;;11.13;93.31;99579.13;5243479;28;20079;-74
2022/09/27 16:48:03;;;;;;;2.72;2.15;;;;;;;11.06;92.50;99576.84;5262571;28;20044;-74
2022/09/27 16:53:24;;;;;;;4.28;2.17;;;;;;;11.07;92.71;99572.94;5248600;28;20029;-75
2022/09/27 16:55:59;;;;;;;3.10;2.08;;;;;;;11.01;93.58;99563.94;5263791;28;20025;-75
2022/09/27 16:58:30;;;;;;;4.20;2.10;;;;;;;11.07;93.47;99570.16;5253219;28;20037;-75
2022/09/27 17:01:02;;;;;;;4.72;3.33;;;;;;;11.05;93.75;99569.66;5242217;28;20038;-75
2022/09/27 17:03:33;;;;;;;3.55;1.98;;;;;;;11.03;93.26;99561.66;5242719;28;20124;-75
2022/09/27 17:06:04;;;;;;;3.53;2.00;;;;;;;11.02;93.50;99562.00;5246963;28;20365;-75
2022/09/27 17:08:36;;;;;;;3.80;1.98;;;;;;;11.00;93.46;99561.50;5245561;28;20037;-78
2022/09/27 17:11:07;;;;;;;5.50;2.30;;;;;;;10.94;93.44;99560.00;5242551;28;20368;-79
2022/09/27 17:13:39;;;;;;;2.88;1.98;;;;;;;10.97;93.80;99557.41;5243066;28;20041;-78
2022/09/27 17:16:12;;;;;;;5.32;2.15;;;;;;;11.00;93.75;99550.41;5242298;28;20326;-74
2022/09/27 17:18:44;;;;;;;4.78;2.00;;;;;;;10.94;93.38;99544.19;5242880;28;20056;-75
2022/09/27 17:21:15;;;;;;;6.38;3.00;;;;;;;10.95;94.38;99536.69;5241354;28;20030;-75
2022/09/27 17:23:47;;;;;;;6.10;3.00;;;;;;;10.96;95.32;99541.88;5242759;28;20033;-77
2022/09/27 17:26:21;;;;;;;5.50;2.80;;;;;;;10.95;95.53;99540.25;5253322;28;20033;-77
2022/09/27 17:28:56;;;;;;;5.50;2.45;;;;;;;10.91;94.91;99544.00;5246220;28;20056;-76
2022/09/27 17:31:31;;;;;;;4.13;3.00;;;;;;;10.74;94.30;99545.59;5254903;28;20086;-76
